Time;durP1;ratioP1;P1;durP2;ratioP2;P2;SDS_P1;SDS_P2;PMS_P1;PMS_P2;Temp;Humidity;BMP_temperature;BMP_pressure;BME280_temperature;BME280_humidity;BME280_pressure;Samples;Min_cycle;Max_cycle;Signal;HPM_P1;HPM_P2
2023/11/29 00:01:21;;;;;;;7.63;5.97;;;2.40;99.90;;;;;;5058951;28;20061;-79
2023/11/29 00:03:47;;;;;;;7.65;5.57;;;2.40;99.90;;;;;;5063916;28;20068;-77
2023/11/29 00:06:14;;;;;;;6.82;5.50;;;2.40;99.90;;;;;;5057728;28;20029;-77
2023/11/29 00:08:41;;;;;;;8.25;6.13;;;2.30;99.90;;;;;;5060693;28;20053;-80
2023/11/29 00:11:08;;;;;;;8.63;6.15;;;2.30;99.90;;;;;;5044027;28;20132;-79
2023/11/29 00:13:35;;;;;;;7.18;5.50;;;2.30;99.90;;;;;;5058599;28;20072;-79
2023/11/29 00:16:01;;;;;;;7.72;5.47;;;2.30;99.90;;;;;;5056765;28;20056;-81
2023/11/29 00:18:28;;;;;;;7.43;5.82;;;2.20;99.90;;;;;;5058334;28;20041;-78
2023/11/29 00:20:55;;;;;;;8.10;5.30;;;2.20;99.90;;;;;;5059806;28;20040;-81
2023/11/29 00:23:22;;;;;;;6.03;5.32;;;2.20;99.90;;;;;;5062559;28;20053;-82
2023/11/29 00:25:49;;;;;;;8.77;5.40;;;2.20;99.90;;;;;;5062933;28;20041;-79
2023/11/29 00:28:15;;;;;;;7.15;4.90;;;2.10;99.90;;;;;;5061142;28;20041;-80
2023/11/29 00:30:42;;;;;;;8.52;5.38;;;2.10;99.90;;;;;;5063943;28;20079;-79
2023/11/29 00:33:09;;;;;;;7.13;5.35;;;2.00;99.90;;;;;;5039665;28;20063;-79
2023/11/29 00:35:36;;;;;;;7.93;5.95;;;2.00;99.90;;;;;;5060909;28;20052;-79
2023/11/29 00:38:02;;;;;;;8.23;6.03;;;2.00;99.90;;;;;;5059663;28;20041;-78
2023/11/29 00:40:29;;;;;;;8.55;5.75;;;2.00;99.90;;;;;;5049305;28;20056;-78
2023/11/29 00:42:56;;;;;;;8.00;5.60;;;2.00;99.90;;;;;;5059449;28;20041;-81
2023/11/29 00:45:34;;;;;;;7.72;5.25;;;1.90;99.90;;;;;;5061267;28;20105;-78
2023/11/29 00:48:01;;;;;;;7.38;5.97;;;1.90;99.90;;;;;;5059856;28;20055;-77
2023/11/29 00:50:28;;;;;;;6.68;5.13;;;1.90;99.90;;;;;;5063746;28;20117;-79
2023/11/29 00:52:56;;;;;;;9.40;6.30;;;1.80;99.90;;;;;;5059599;28;20044;-79
2023/11/29 00:55:22;;;;;;;7.70;6.18;;;1.80;99.90;;;;;;5045830;28;20574;-81
2023/11/29 00:58:00;;;;;;;9.88;6.35;;;1.80;99.90;;;;;;5063938;28;20047;-77
2023/11/29 01:00:28;;;;;;;8.68;6.75;;;1.80;99.90;;;;;;5063006;28;20048;-81
2023/11/29 01:02:56;;;;;;;9.35;6.47;;;1.80;99.90;;;;;;5062458;28;20109;-81
2023/11/29 01:05:25;;;;;;;10.07;7.70;;;1.80;99.90;;;;;;5062376;28;20144;-81
2023/11/29 01:07:52;;;;;;;10.38;7.40;;;1.80;99.90;;;;;;5040835;28;20071;-77
2023/11/29 01:10:19;;;;;;;9.85;7.18;;;1.80;99.90;;;;;;5059460;28;20079;-77
2023/11/29 01:12:48;;;;;;;10.07;6.38;;;1.70;99.90;;;;;;5066654;28;20075;-80
2023/11/29 01:15:15;;;;;;;9.77;6.63;;;1.70;99.90;;;;;;5063912;28;20053;-78
2023/11/29 01:17:43;;;;;;;7.90;6.10;;;1.70;99.90;;;;;;5065196;28;20072;-80
2023/11/29 01:20:09;;;;;;;11.90;6.88;;;1.70;99.90;;;;;;5043183;28;20041;-77
2023/11/29 01:22:36;;;;;;;8.15;6.00;;;1.70;99.90;;;;;;5066025;28;20045;-78
2023/11/29 01:25:03;;;;;;;8.82;6.22;;;1.60;99.90;;;;;;5047479;28;20045;-79
2023/11/29 01:27:30;;;;;;;7.45;5.60;;;1.60;99.90;;;;;;5059429;28;20041;-79
2023/11/29 01:29:58;;;;;;;6.72;5.68;;;1.60;99.90;;;;;;5060584;28;20045;-78
2023/11/29 01:32:24;;;;;;;7.80;5.60;;;1.60;99.90;;;;;;5050514;28;20052;-78
2023/11/29 01:34:51;;;;;;;7.93;5.60;;;1.60;99.90;;;;;;5063154;28;20041;-77
2023/11/29 01:37:18;;;;;;;6.35;5.10;;;1.70;99.90;;;;;;5059981;28;20605;-78
2023/11/29 01:39:46;;;;;;;7.15;5.50;;;1.70;99.90;;;;;;5062061;28;20075;-79
2023/11/29 01:42:13;;;;;;;7.40;5.28;;;1.70;99.90;;;;;;5063208;28;20045;-78
2023/11/29 01:44:40;;;;;;;6.07;4.70;;;1.80;99.90;;;;;;5062916;28;20205;-81
2023/11/29 01:47:13;;;;;;;6.70;5.05;;;1.80;99.90;;;;;;5064751;28;20045;-80
2023/11/29 01:49:41;;;;;;;7.25;5.05;;;1.80;99.90;;;;;;5067524;28;20308;-77
2023/11/29 01:52:09;;;;;;;5.85;4.88;;;1.80;99.90;;;;;;5038156;28;20067;-78
2023/11/29 01:54:37;;;;;;;5.28;4.60;;;1.80;99.90;;;;;;5047931;28;20088;-81
2023/11/29 01:57:04;;;;;;;9.27;6.10;;;1.80;99.90;;;;;;5067002;28;20041;-78
2023/11/29 01:59:31;;;;;;;8.05;5.35;;;1.80;99.90;;;;;;5063861;28;20053;-82
2023/11/29 02:01:58;;;;;;;6.97;5.68;;;1.70;99.90;;;;;;5063444;28;20052;-80
2023/11/29 02:04:25;;;;;;;8.57;5.28;;;1.70;99.90;;;;;;5065085;28;20099;-77
2023/11/29 02:06:52;;;;;;;6.47;5.32;;;1.70;99.90;;;;;;5062720;28;20055;-80
2023/11/29 02:09:19;;;;;;;6.07;4.82;;;1.70;99.90;;;;;;5044372;28;20048;-79
2023/11/29 02:11:46;;;;;;;7.65;4.93;;;1.70;99.90;;;;;;5062091;28;20103;-80
2023/11/29 02:14:13;;;;;;;6.55;5.20;;;1.60;99.90;;;;;;5047188;28;20040;-80
2023/11/29 02:16:40;;;;;;;5.78;4.63;;;1.60;99.90;;;;;;5056852;28;20049;-78
2023/11/29 02:19:07;;;;;;;7.57;5.32;;;1.60;99.90;;;;;;5063916;28;20068;-76
2023/11/29 02:21:34;;;;;;;6.47;4.95;;;1.50;99.90;;;;;;5065633;28;20045;-78
2023/11/29 02:24:05;;;;;;;7.05;4.80;;;1.50;99.90;;;;;;5068079;28;20043;-77
2023/11/29 02:26:32;;;;;;;7.20;5.45;;;1.50;99.90;;;;;;5048082;28;20102;-82
2023/11/29 02:29:00;;;;;;;7.07;5.00;;;1.50;99.90;;;;;;5065934;28;20080;-80
2023/11/29 02:31:27;;;;;;;5.90;4.72;;;1.50;99.90;;;;;;5063080;28;20489;-77
2023/11/29 02:33:54;;;;;;;10.50;5.82;;;1.40;99.90;;;;;;5064636;28;20145;-80
2023/11/29 02:36:21;;;;;;;6.60;5.05;;;1.40;99.90;;;;;;5066999;28;20060;-79
2023/11/29 02:38:48;;;;;;;8.38;5.45;;;1.40;99.90;;;;;;5061078;28;20598;-77
2023/11/29 02:41:15;;;;;;;6.78;5.35;;;1.40;99.90;;;;;;5065715;28;20041;-78
2023/11/29 02:43:41;;;;;;;7.28;5.18;;;1.40;99.90;;;;;;5070280;28;20036;-76
2023/11/29 02:46:08;;;;;;;7.72;5.18;;;1.40;99.90;;;;;;5049335;28;20040;-78
2023/11/29 02:48:35;;;;;;;6.97;5.55;;;1.40;99.90;;;;;;5070090;28;20071;-79
2023/11/29 02:51:02;;;;;;;7.82;5.75;;;1.40;99.90;;;;;;5065870;28;20052;-77
2023/11/29 02:53:28;;;;;;;6.47;5.20;;;1.30;99.90;;;;;;5065161;28;20052;-77
2023/11/29 02:55:55;;;;;;;7.88;5.00;;;1.30;99.90;;;;;;5052045;28;20041;-78
2023/11/29 02:58:22;;;;;;;7.32;4.90;;;1.30;99.90;;;;;;5063925;28;20037;-78
2023/11/29 03:00:48;;;;;;;9.55;5.28;;;1.30;99.90;;;;;;5066131;28;20041;-77
2023/11/29 03:03:15;;;;;;;8.48;5.10;;;1.20;99.90;;;;;;5065946;28;20037;-78
2023/11/29 03:05:42;;;;;;;6.45;4.47;;;1.30;99.90;;;;;;5066792;28;20440;-78
2023/11/29 03:08:09;;;;;;;6.65;4.70;;;1.30;99.90;;;;;;5063584;28;20044;-77
2023/11/29 03:10:36;;;;;;;5.30;4.30;;;1.30;99.90;;;;;;5041906;28;20042;-80
2023/11/29 03:13:03;;;;;;;6.25;4.35;;;1.30;99.90;;;;;;5066563;28;20041;-77
2023/11/29 03:15:29;;;;;;;5.65;4.40;;;1.20;99.90;;;;;;5061916;28;20065;-80
2023/11/29 03:17:56;;;;;;;5.03;3.95;;;1.20;99.90;;;;;;5069543;28;20091;-79
2023/11/29 03:20:23;;;;;;;5.43;4.43;;;1.30;99.90;;;;;;5065223;28;20386;-76
2023/11/29 03:22:49;;;;;;;5.63;4.35;;;1.20;99.90;;;;;;5062114;28;20091;-77
2023/11/29 03:25:16;;;;;;;6.35;4.65;;;1.20;99.90;;;;;;5061334;28;20049;-80
2023/11/29 03:27:43;;;;;;;7.85;4.75;;;1.30;99.90;;;;;;5063284;28;20045;-77
2023/11/29 03:30:10;;;;;;;9.27;4.20;;;1.30;99.90;;;;;;5063639;28;20041;-77
2023/11/29 03:32:37;;;;;;;5.22;4.07;;;1.30;99.90;;;;;;5061650;28;20049;-78
2023/11/29 03:35:04;;;;;;;6.20;4.38;;;1.30;99.90;;;;;;5047327;28;20119;-77
2023/11/29 03:37:31;;;;;;;4.80;3.92;;;1.30;99.90;;;;;;5040777;28;20050;-78
2023/11/29 03:39:58;;;;;;;6.10;4.07;;;1.40;99.90;;;;;;5063686;28;20067;-77
2023/11/29 03:42:24;;;;;;;4.85;4.10;;;1.40;99.90;;;;;;5060257;28;20071;-78
2023/11/29 03:44:51;;;;;;;6.90;4.07;;;1.40;99.90;;;;;;5067307;28;20040;-81
2023/11/29 03:47:18;;;;;;;5.53;4.15;;;1.40;99.90;;;;;;5056690;28;20052;-77
2023/11/29 03:49:45;;;;;;;5.75;4.20;;;1.50;99.90;;;;;;5060426;28;20147;-80
2023/11/29 03:52:12;;;;;;;4.72;3.60;;;1.50;99.90;;;;;;5057930;28;20056;-79
2023/11/29 03:54:38;;;;;;;5.70;4.28;;;1.50;99.90;;;;;;5067475;28;20057;-77
2023/11/29 03:57:05;;;;;;;5.25;4.15;;;1.50;99.90;;;;;;5058972;28;20075;-80
2023/11/29 03:59:32;;;;;;;5.38;3.85;;;1.50;99.90;;;;;;5058426;28;20052;-80
2023/11/29 04:01:59;;;;;;;4.60;3.92;;;1.60;99.90;;;;;;5048418;28;20045;-79
2023/11/29 04:04:26;;;;;;;5.15;4.07;;;1.50;99.90;;;;;;5052633;28;20063;-79
2023/11/29 04:06:52;;;;;;;5.05;3.92;;;1.60;99.90;;;;;;5049674;28;20095;-80
2023/11/29 04:09:19;;;;;;;6.68;4.60;;;1.60;99.90;;;;;;5050620;28;20483;-79
2023/11/29 04:11:46;;;;;;;4.65;4.03;;;1.60;99.90;;;;;;5037666;28;20103;-77
2023/11/29 04:14:13;;;;;;;5.80;4.40;;;1.60;99.90;;;;;;5050210;28;20045;-78
2023/11/29 04:16:40;;;;;;;4.63;3.83;;;1.60;99.90;;;;;;5049756;28;20052;-81
2023/11/29 04:19:07;;;;;;;4.82;4.00;;;1.60;99.90;;;;;;5053064;28;20041;-80
2023/11/29 04:21:35;;;;;;;4.65;4.00;;;1.60;99.90;;;;;;5049185;28;20075;-79
2023/11/29 04:24:02;;;;;;;5.30;4.30;;;1.60;99.90;;;;;;5050736;28;20105;-80
2023/11/29 04:26:36;;;;;;;6.00;4.03;;;1.60;99.90;;;;;;5049496;28;20041;-80
2023/11/29 04:29:06;;;;;;;5.05;4.03;;;1.60;99.90;;;;;;5046351;28;20049;-76
2023/11/29 04:31:35;;;;;;;5.88;4.68;;;1.50;99.90;;;;;;5031308;28;20045;-78
2023/11/29 04:34:02;;;;;;;6.75;4.45;;;1.50;99.90;;;;;;5046499;28;20515;-78
2023/11/29 04:36:44;;;;;;;5.68;4.55;;;1.50;99.90;;;;;;5048725;28;20053;-78
2023/11/29 04:39:15;;;;;;;5.40;4.32;;;1.50;99.90;;;;;;5033685;28;20045;-81
2023/11/29 04:41:42;;;;;;;5.88;4.78;;;1.40;99.90;;;;;;5025164;28;20045;-81
2023/11/29 04:44:09;;;;;;;5.88;4.88;;;1.40;99.90;;;;;;5047317;28;20127;-79
2023/11/29 04:46:36;;;;;;;5.95;4.50;;;1.40;99.90;;;;;;5023280;28;20132;-77
2023/11/29 04:49:03;;;;;;;6.53;4.53;;;1.40;99.90;;;;;;5029636;28;20517;-81
2023/11/29 04:51:30;;;;;;;5.90;3.92;;;1.40;99.90;;;;;;5047043;28;20045;-78
2023/11/29 04:53:56;;;;;;;5.00;4.43;;;1.40;99.90;;;;;;5032301;28;20077;-81
2023/11/29 04:56:23;;;;;;;5.15;4.05;;;1.30;99.90;;;;;;5044682;28;20049;-81
2023/11/29 04:58:50;;;;;;;5.53;4.10;;;1.40;99.90;;;;;;5046783;28;20054;-79
2023/11/29 05:01:17;;;;;;;4.88;3.95;;;1.30;99.90;;;;;;5045692;28;20072;-80
2023/11/29 05:03:43;;;;;;;7.22;4.53;;;1.20;99.90;;;;;;5049192;28;20050;-81
2023/11/29 05:06:10;;;;;;;5.68;4.90;;;1.30;99.90;;;;;;5045730;28;20076;-78
2023/11/29 05:08:37;;;;;;;6.00;4.60;;;1.30;99.90;;;;;;5038091;28;20048;-76
2023/11/29 05:11:04;;;;;;;5.53;4.22;;;1.30;99.90;;;;;;5041841;28;20091;-79
2023/11/29 05:13:31;;;;;;;6.50;4.75;;;1.40;99.90;;;;;;5047568;28;20504;-77
2023/11/29 05:15:59;;;;;;;6.82;5.10;;;1.40;99.90;;;;;;5047283;28;20504;-79
2023/11/29 05:18:26;;;;;;;5.38;4.38;;;1.40;99.90;;;;;;5042600;28;20131;-78
2023/11/29 05:20:53;;;;;;;5.88;4.93;;;1.50;99.90;;;;;;5048016;28;20136;-79
2023/11/29 05:23:21;;;;;;;7.57;5.05;;;1.50;99.90;;;;;;5047731;28;20044;-79
2023/11/29 05:25:48;;;;;;;5.18;4.28;;;1.60;99.90;;;;;;5045291;28;20050;-78
2023/11/29 05:28:15;;;;;;;5.57;4.65;;;1.60;99.90;;;;;;5049817;28;20052;-77
2023/11/29 05:30:42;;;;;;;7.65;4.72;;;1.70;99.90;;;;;;5046021;28;20045;-78
2023/11/29 05:33:09;;;;;;;6.47;4.35;;;1.70;99.90;;;;;;5047032;28;20554;-78
2023/11/29 05:35:36;;;;;;;5.72;4.30;;;1.70;99.90;;;;;;5051631;28;20045;-79
2023/11/29 05:38:03;;;;;;;6.88;5.03;;;1.70;99.90;;;;;;5044434;28;20045;-80
2023/11/29 05:40:30;;;;;;;4.95;4.32;;;1.70;99.90;;;;;;5048566;28;20408;-80
2023/11/29 05:42:57;;;;;;;6.45;4.95;;;1.70;99.90;;;;;;5046959;28;20119;-79
2023/11/29 05:45:23;;;;;;;7.20;5.18;;;1.70;99.90;;;;;;5048627;28;20048;-78
2023/11/29 05:47:50;;;;;;;5.28;4.40;;;1.70;99.90;;;;;;5046146;28;20123;-80
2023/11/29 05:50:17;;;;;;;6.40;5.00;;;1.80;99.90;;;;;;5052101;28;20166;-79
2023/11/29 05:52:44;;;;;;;7.53;5.22;;;1.70;99.90;;;;;;5035975;28;20060;-79
2023/11/29 05:55:12;;;;;;;6.07;4.82;;;1.70;99.90;;;;;;5052699;28;20126;-78
2023/11/29 05:57:39;;;;;;;5.60;4.90;;;1.70;99.90;;;;;;5050273;28;20056;-79
2023/11/29 06:00:09;;;;;;;6.28;5.13;;;1.70;99.90;;;;;;5048663;28;20049;-79
2023/11/29 06:02:57;;;;;;;6.35;4.88;;;1.70;99.90;;;;;;5038662;28;20079;-78
2023/11/29 06:05:24;;;;;;;9.40;5.43;;;1.70;99.90;;;;;;5050396;28;20576;-80
2023/11/29 06:07:51;;;;;;;6.40;4.75;;;1.70;99.90;;;;;;5053177;28;20057;-78
2023/11/29 06:10:17;;;;;;;5.70;4.25;;;1.70;99.90;;;;;;5053568;28;20044;-77
2023/11/29 06:12:45;;;;;;;5.72;4.38;;;1.70;99.90;;;;;;5050496;28;20084;-81
2023/11/29 06:15:12;;;;;;;5.80;4.90;;;1.70;99.90;;;;;;5051638;28;20073;-80
2023/11/29 06:17:39;;;;;;;5.93;4.43;;;1.70;99.90;;;;;;5040004;28;20051;-80
2023/11/29 06:20:11;;;;;;;6.60;5.68;;;1.70;99.90;;;;;;5049352;28;20492;-81
2023/11/29 06:22:38;;;;;;;7.72;4.60;;;1.70;99.90;;;;;;5035161;28;20052;-80
2023/11/29 06:25:07;;;;;;;7.25;4.53;;;1.70;99.90;;;;;;5053040;28;20120;-80
2023/11/29 06:27:35;;;;;;;4.82;4.05;;;1.70;99.90;;;;;;5053293;28;20508;-81
2023/11/29 06:30:03;;;;;;;5.07;3.92;;;1.70;99.90;;;;;;5052335;28;20535;-77
2023/11/29 06:32:31;;;;;;;7.15;4.88;;;1.70;99.90;;;;;;5037909;28;20057;-80
2023/11/29 06:34:58;;;;;;;5.38;3.90;;;1.70;99.90;;;;;;5052979;28;20053;-81
2023/11/29 06:37:25;;;;;;;5.10;4.18;;;1.70;99.90;;;;;;5028282;28;20052;-79
2023/11/29 06:39:53;;;;;;;6.45;4.65;;;1.70;99.90;;;;;;5053959;28;20128;-79
2023/11/29 06:42:21;;;;;;;5.40;4.63;;;1.70;99.90;;;;;;5038275;28;20045;-79
2023/11/29 06:44:48;;;;;;;5.30;4.15;;;1.70;99.90;;;;;;5051731;28;20493;-80
2023/11/29 06:47:17;;;;;;;6.32;4.32;;;1.70;99.90;;;;;;5048190;28;20513;-80
2023/11/29 06:49:44;;;;;;;5.53;4.18;;;1.70;99.90;;;;;;5033752;28;20060;-79
2023/11/29 06:52:12;;;;;;;5.30;4.22;;;1.70;99.90;;;;;;5051140;28;20053;-81
2023/11/29 06:54:39;;;;;;;5.35;4.25;;;1.70;99.90;;;;;;5049878;28;20525;-78
2023/11/29 06:57:06;;;;;;;6.63;4.53;;;1.70;99.90;;;;;;5048424;28;20048;-77
2023/11/29 06:59:34;;;;;;;3.55;3.22;;;1.70;99.90;;;;;;5050091;28;20463;-80
2023/11/29 07:02:04;;;;;;;6.32;4.60;;;1.70;99.90;;;;;;5039178;28;20091;-78
2023/11/29 07:04:31;;;;;;;4.15;3.75;;;1.80;99.90;;;;;;5050104;28;20040;-80
2023/11/29 07:06:59;;;;;;;4.63;3.67;;;1.80;99.90;;;;;;5056016;28;20049;-80
2023/11/29 07:09:27;;;;;;;5.25;4.00;;;1.80;99.90;;;;;;5051590;28;20071;-79
2023/11/29 07:11:53;;;;;;;6.28;4.50;;;1.80;99.90;;;;;;5050670;28;20429;-77
2023/11/29 07:14:20;;;;;;;5.40;4.20;;;1.90;99.90;;;;;;5048703;28;20049;-80
2023/11/29 07:16:47;;;;;;;5.85;4.22;;;1.90;99.90;;;;;;5050791;28;20448;-79
2023/11/29 07:19:14;;;;;;;5.75;4.35;;;1.90;99.90;;;;;;5051504;28;20048;-81
2023/11/29 07:21:41;;;;;;;3.78;3.40;;;1.90;99.90;;;;;;5049396;28;20045;-79
2023/11/29 07:24:08;;;;;;;4.10;3.70;;;1.90;99.90;;;;;;5047341;28;20052;-78
2023/11/29 07:26:34;;;;;;;5.63;3.55;;;1.90;99.90;;;;;;5052111;28;20073;-80
2023/11/29 07:29:03;;;;;;;4.55;3.67;;;1.90;99.90;;;;;;5050136;28;20107;-79
2023/11/29 07:31:31;;;;;;;5.05;3.28;;;2.00;99.90;;;;;;5051702;28;20448;-79
2023/11/29 07:33:58;;;;;;;6.63;3.83;;;2.00;99.90;;;;;;5032917;28;20049;-78
2023/11/29 07:36:26;;;;;;;3.90;3.10;;;2.00;99.90;;;;;;5052876;28;20481;-79
2023/11/29 07:38:54;;;;;;;3.70;3.20;;;2.10;99.90;;;;;;5036210;28;20046;-78
2023/11/29 07:41:22;;;;;;;4.05;3.20;;;2.10;99.90;;;;;;5050048;28;20041;-80
2023/11/29 07:43:49;;;;;;;5.18;3.58;;;2.10;99.90;;;;;;5049844;28;20061;-80
2023/11/29 07:46:17;;;;;;;9.00;4.55;;;2.20;99.90;;;;;;5049406;28;20041;-80
2023/11/29 07:48:44;;;;;;;11.05;4.00;;;2.20;99.90;;;;;;5046927;28;20547;-79
2023/11/29 07:51:11;;;;;;;9.85;6.80;;;2.30;99.90;;;;;;5047834;28;20045;-78
2023/11/29 07:53:37;;;;;;;10.20;7.25;;;2.30;99.90;;;;;;5049172;28;20095;-81
2023/11/29 07:56:05;;;;;;;27.63;16.90;;;2.30;99.90;;;;;;5048367;28;20056;-80
2023/11/29 07:58:32;;;;;;;9.55;7.30;;;2.40;99.90;;;;;;5052187;28;20049;-81
2023/11/29 08:01:02;;;;;;;11.82;8.15;;;2.40;99.90;;;;;;5058222;28;20076;-80
2023/11/29 08:03:29;;;;;;;14.85;6.55;;;2.50;99.90;;;;;;5067327;28;20048;-78
2023/11/29 08:05:56;;;;;;;3.92;3.40;;;2.50;99.90;;;;;;5051762;28;20570;-79
2023/11/29 08:08:24;;;;;;;3.83;3.33;;;2.50;99.90;;;;;;5052280;28;20048;-77
2023/11/29 08:10:51;;;;;;;4.47;4.03;;;2.50;99.90;;;;;;5044210;28;20060;-79
2023/11/29 08:13:18;;;;;;;3.53;3.22;;;2.60;99.90;;;;;;5052262;28;20045;-76
2023/11/29 08:15:44;;;;;;;4.15;3.75;;;2.60;99.90;;;;;;5034928;28;20044;-81
2023/11/29 08:18:12;;;;;;;4.47;3.67;;;2.50;99.90;;;;;;5053848;28;20040;-79
2023/11/29 08:20:39;;;;;;;3.38;3.00;;;2.50;99.90;;;;;;5048618;28;20045;-80
2023/11/29 08:23:06;;;;;;;4.25;3.05;;;2.50;99.90;;;;;;5053498;28;20045;-78
2023/11/29 08:25:33;;;;;;;4.18;2.80;;;2.50;99.90;;;;;;5055337;28;20055;-80
2023/11/29 08:28:00;;;;;;;3.75;3.38;;;2.50;99.90;;;;;;5047518;28;20080;-78
2023/11/29 08:30:26;;;;;;;5.38;3.33;;;2.40;99.90;;;;;;5051631;28;20493;-79
2023/11/29 08:32:53;;;;;;;3.60;3.08;;;2.40;99.90;;;;;;5053015;28;20101;-80
2023/11/29 08:35:20;;;;;;;4.25;3.15;;;2.40;99.90;;;;;;5054384;28;20041;-79
2023/11/29 08:37:48;;;;;;;6.38;3.75;;;2.40;99.90;;;;;;5049849;28;20576;-83
2023/11/29 08:40:15;;;;;;;4.00;3.40;;;2.40;99.90;;;;;;5052645;28;20041;-81
2023/11/29 08:42:42;;;;;;;4.53;3.42;;;2.40;99.90;;;;;;5049708;28;20111;-79
2023/11/29 08:45:09;;;;;;;3.65;3.28;;;2.40;99.90;;;;;;5051344;28;20103;-77
2023/11/29 08:47:36;;;;;;;4.53;3.90;;;2.30;99.90;;;;;;5048859;28;20071;-77
2023/11/29 08:50:05;;;;;;;5.53;3.47;;;2.30;99.90;;;;;;5051327;28;20053;-78
2023/11/29 08:52:32;;;;;;;6.22;3.75;;;2.30;99.90;;;;;;5049026;28;20053;-80
2023/11/29 08:54:59;;;;;;;6.30;3.55;;;2.30;99.90;;;;;;5049970;28;20495;-77
2023/11/29 08:57:26;;;;;;;4.25;3.55;;;2.30;99.90;;;;;;5051461;28;20072;-81
2023/11/29 08:59:53;;;;;;;4.10;3.70;;;2.30;99.90;;;;;;5048165;28;20132;-79
2023/11/29 09:02:21;;;;;;;4.03;3.53;;;2.30;99.90;;;;;;5033799;28;20479;-81
2023/11/29 09:04:49;;;;;;;4.45;3.50;;;2.30;99.90;;;;;;5026332;28;20457;-80
2023/11/29 09:07:17;;;;;;;4.28;3.75;;;2.40;99.90;;;;;;5031829;28;20489;-78
2023/11/29 09:09:44;;;;;;;4.40;3.85;;;2.40;99.90;;;;;;5048064;28;20045;-79
2023/11/29 09:12:12;;;;;;;4.95;4.05;;;2.40;99.90;;;;;;5038767;28;20107;-79
2023/11/29 09:14:39;;;;;;;5.15;3.97;;;2.40;99.90;;;;;;5053622;28;20045;-79
2023/11/29 09:17:06;;;;;;;4.03;3.63;;;2.50;99.90;;;;;;5051983;28;20060;-78
2023/11/29 09:19:33;;;;;;;3.88;3.35;;;2.50;99.90;;;;;;5054361;28;20049;-81
2023/11/29 09:22:01;;;;;;;4.63;3.55;;;2.50;99.90;;;;;;5053310;28;20098;-79
2023/11/29 09:24:28;;;;;;;4.05;3.65;;;2.50;99.90;;;;;;5053106;28;20049;-78
2023/11/29 09:26:54;;;;;;;5.05;3.90;;;2.60;99.90;;;;;;5049322;28;20046;-79
2023/11/29 09:29:30;;;;;;;4.75;4.00;;;2.60;99.90;;;;;;5048923;28;20080;-79
2023/11/29 09:31:57;;;;;;;3.90;3.50;;;2.60;99.90;;;;;;5051381;28;20061;-79
2023/11/29 09:34:24;;;;;;;3.75;3.38;;;2.60;99.90;;;;;;5033704;28;20056;-79
2023/11/29 09:36:53;;;;;;;4.57;3.50;;;2.60;99.90;;;;;;5048065;28;20052;-80
2023/11/29 09:39:20;;;;;;;4.57;3.72;;;2.60;99.90;;;;;;5049280;28;20041;-80
2023/11/29 09:41:47;;;;;;;4.38;3.78;;;2.60;99.90;;;;;;5047688;28;20049;-77
2023/11/29 09:44:14;;;;;;;4.47;3.10;;;2.70;99.90;;;;;;5047511;28;20041;-78
2023/11/29 09:46:42;;;;;;;3.78;3.25;;;2.70;99.90;;;;;;5042771;28;20128;-77
2023/11/29 09:49:10;;;;;;;4.43;3.33;;;2.80;99.90;;;;;;5047267;28;20107;-78
2023/11/29 09:51:37;;;;;;;4.95;3.90;;;2.80;99.90;;;;;;5042595;28;20049;-79
2023/11/29 09:54:04;;;;;;;4.70;3.70;;;2.90;99.90;;;;;;5046633;28;20107;-82
2023/11/29 09:56:31;;;;;;;3.72;3.40;;;2.90;99.90;;;;;;5052655;28;20517;-77
2023/11/29 09:58:58;;;;;;;4.63;3.63;;;2.90;99.90;;;;;;5048324;28;20049;-80
2023/11/29 10:01:26;;;;;;;4.47;3.40;;;2.90;99.90;;;;;;5045177;28;20041;-76
2023/11/29 10:04:08;;;;;;;3.70;3.15;;;2.90;99.90;;;;;;5048956;28;20072;-82
2023/11/29 10:06:35;;;;;;;3.10;2.80;;;3.00;99.90;;;;;;5052392;28;20066;-77
2023/11/29 10:09:05;;;;;;;3.22;2.92;;;3.00;99.90;;;;;;5048302;28;20045;-78
2023/11/29 10:11:33;;;;;;;4.60;3.53;;;3.00;99.90;;;;;;5057817;28;20049;-78
2023/11/29 10:14:00;;;;;;;3.05;2.67;;;3.00;99.90;;;;;;5028146;28;20049;-77
2023/11/29 10:16:31;;;;;;;3.58;3.17;;;3.00;99.90;;;;;;5049868;28;20106;-80
2023/11/29 10:19:01;;;;;;;4.13;2.78;;;3.00;99.90;;;;;;5050638;28;20053;-78
2023/11/29 10:21:28;;;;;;;4.93;3.72;;;3.00;99.90;;;;;;5035044;28;20045;-77
2023/11/29 10:23:55;;;;;;;5.60;3.58;;;3.10;99.90;;;;;;5050407;28;20077;-79
2023/11/29 10:26:22;;;;;;;4.20;3.08;;;3.10;99.90;;;;;;5050019;28;20091;-79
2023/11/29 10:28:51;;;;;;;4.28;3.25;;;3.10;99.90;;;;;;5028914;28;20522;-76
2023/11/29 10:31:21;;;;;;;3.92;3.22;;;3.20;99.90;;;;;;5046212;28;20519;-76
2023/11/29 10:33:50;;;;;;;3.38;3.08;;;3.20;99.90;;;;;;5048589;28;20118;-79
2023/11/29 10:36:18;;;;;;;3.88;3.17;;;3.20;99.90;;;;;;5050471;28;20052;-79
2023/11/29 10:38:54;;;;;;;4.03;3.20;;;3.20;99.90;;;;;;5049441;28;20061;-78
2023/11/29 10:41:23;;;;;;;4.72;3.40;;;3.30;99.90;;;;;;5045136;28;20041;-78
2023/11/29 10:43:52;;;;;;;4.22;3.40;;;3.30;99.90;;;;;;5054386;28;20424;-78
2023/11/29 10:46:28;;;;;;;3.88;3.22;;;3.30;99.90;;;;;;5041592;28;20412;-80
2023/11/29 10:49:03;;;;;;;5.57;3.70;;;3.40;99.90;;;;;;5047756;28;20054;-79
2023/11/29 10:51:31;;;;;;;5.40;3.10;;;3.40;99.90;;;;;;5052087;28;20099;-79
2023/11/29 10:53:59;;;;;;;5.13;3.15;;;3.40;99.90;;;;;;5061909;28;20049;-80
2023/11/29 10:56:27;;;;;;;2.85;2.65;;;3.40;99.90;;;;;;5064732;28;20091;-77
2023/11/29 10:59:23;;;;;;;3.75;3.05;;;3.50;99.90;;;;;;5054417;28;20051;-76
2023/11/29 11:01:56;;;;;;;4.53;2.97;;;3.50;99.90;;;;;;5056700;28;20045;-79
2023/11/29 11:04:32;;;;;;;3.58;2.92;;;3.50;99.90;;;;;;5046814;28;20048;-79
2023/11/29 11:06:59;;;;;;;4.22;3.20;;;3.50;99.90;;;;;;5056091;28;20041;-80
2023/11/29 11:09:39;;;;;;;2.70;2.42;;;3.60;99.90;;;;;;5066452;28;20041;-78
2023/11/29 11:12:06;;;;;;;4.57;2.63;;;3.60;99.90;;;;;;5060145;28;20048;-79
2023/11/29 11:15:07;;;;;;;3.60;3.22;;;3.60;99.90;;;;;;5045834;28;20044;-77
2023/11/29 11:17:34;;;;;;;7.40;3.30;;;3.70;99.90;;;;;;5061265;28;20115;-80
2023/11/29 11:20:06;;;;;;;3.97;3.58;;;3.70;99.90;;;;;;5055944;28;20448;-81
2023/11/29 11:22:41;;;;;;;5.78;3.42;;;3.70;99.90;;;;;;5065874;28;20052;-83
2023/11/29 11:25:13;;;;;;;3.83;2.92;;;3.70;99.90;;;;;;5067216;28;20044;-82
2023/11/29 11:27:41;;;;;;;5.13;3.53;;;3.80;99.90;;;;;;5063269;28;20500;-81
2023/11/29 11:30:14;;;;;;;4.18;3.30;;;3.80;99.90;;;;;;5066921;28;20397;-79
2023/11/29 11:32:47;;;;;;;4.97;3.50;;;3.80;99.90;;;;;;5059087;28;20084;-81
2023/11/29 11:35:24;;;;;;;3.85;3.20;;;3.80;99.90;;;;;;5068519;28;20093;-80
2023/11/29 11:37:56;;;;;;;4.15;3.35;;;3.90;99.90;;;;;;5065008;28;20109;-78
2023/11/29 11:40:28;;;;;;;3.70;3.22;;;3.90;99.90;;;;;;5059380;28;20041;-78
2023/11/29 11:42:56;;;;;;;5.13;2.70;;;3.90;99.90;;;;;;5061911;28;20049;-77
2023/11/29 11:45:24;;;;;;;4.03;3.08;;;3.90;99.90;;;;;;5048536;28;20056;-79
2023/11/29 11:47:51;;;;;;;5.93;3.30;;;3.90;99.90;;;;;;5032940;28;20103;-80
2023/11/29 11:50:18;;;;;;;3.10;2.80;;;3.90;99.90;;;;;;5052164;28;20492;-80
2023/11/29 11:52:45;;;;;;;4.90;3.08;;;4.00;99.90;;;;;;5050489;28;20135;-79
2023/11/29 11:55:17;;;;;;;3.60;2.90;;;4.00;99.90;;;;;;5036293;28;20049;-79
2023/11/29 11:57:44;;;;;;;4.78;3.30;;;4.00;99.90;;;;;;5055235;28;20497;-82
2023/11/29 12:00:13;;;;;;;4.30;3.35;;;4.00;99.90;;;;;;5047585;28;20049;-79
2023/11/29 12:02:40;;;;;;;3.28;2.80;;;4.10;99.90;;;;;;5061701;28;20045;-77
2023/11/29 12:05:07;;;;;;;5.80;3.15;;;4.10;99.90;;;;;;5062707;28;20053;-79
2023/11/29 12:07:43;;;;;;;3.90;3.15;;;4.10;99.90;;;;;;5065875;28;20049;-80
2023/11/29 12:10:14;;;;;;;4.32;3.40;;;4.10;99.90;;;;;;5057459;28;20045;-77
2023/11/29 12:12:43;;;;;;;4.25;3.42;;;4.20;99.90;;;;;;5067334;28;20535;-77
2023/11/29 12:15:16;;;;;;;4.72;3.03;;;4.20;99.90;;;;;;5064641;28;20052;-82
2023/11/29 12:17:46;;;;;;;3.75;3.13;;;4.20;99.90;;;;;;5057489;28;20052;-77
2023/11/29 12:20:14;;;;;;;3.57;2.87;;;4.20;99.90;;;;;;5064587;28;20045;-78
2023/11/29 12:22:44;;;;;;;5.55;3.15;;;4.20;99.90;;;;;;5063487;28;20599;-78
2023/11/29 12:25:13;;;;;;;4.15;2.88;;;4.30;99.90;;;;;;5061082;28;20045;-77
2023/11/29 12:27:43;;;;;;;3.65;2.53;;;4.30;99.90;;;;;;5058481;28;20108;-80
2023/11/29 12:30:13;;;;;;;6.05;2.90;;;4.30;99.90;;;;;;5059885;28;20045;-79
2023/11/29 12:32:41;;;;;;;4.82;2.90;;;4.30;99.90;;;;;;5043500;28;20049;-79
2023/11/29 12:35:10;;;;;;;3.70;2.30;;;4.30;99.90;;;;;;5049602;28;20132;-80
2023/11/29 12:37:43;;;;;;;3.35;2.70;;;4.40;99.90;;;;;;5047584;28;20079;-81
2023/11/29 12:40:11;;;;;;;7.65;3.33;;;4.40;99.90;;;;;;5039087;28;20048;-83
2023/11/29 12:42:38;;;;;;;4.32;3.15;;;4.40;99.90;;;;;;5031756;28;20424;-82
2023/11/29 12:45:05;;;;;;;3.80;3.17;;;4.40;99.90;;;;;;5050998;28;20467;-81
2023/11/29 12:47:33;;;;;;;4.35;2.70;;;4.40;99.90;;;;;;5046118;28;20052;-81
2023/11/29 12:50:01;;;;;;;2.95;2.45;;;4.40;99.90;;;;;;5048622;28;20564;-82
2023/11/29 12:52:28;;;;;;;4.85;2.53;;;4.40;99.90;;;;;;5049010;28;20045;-80
2023/11/29 12:54:54;;;;;;;4.72;3.00;;;4.50;99.90;;;;;;5052896;28;20515;-80
2023/11/29 12:57:21;;;;;;;3.70;2.33;;;4.50;99.90;;;;;;5047725;28;20048;-80
2023/11/29 12:59:48;;;;;;;4.43;2.85;;;4.50;99.90;;;;;;5031278;28;20397;-79
2023/11/29 13:02:15;;;;;;;3.78;2.80;;;4.50;99.90;;;;;;5034982;28;20045;-78